createdAt,value
2024-01-11T00:00:10.632Z,-7.50
2024-01-11T00:01:10.615Z,-7.51
2024-01-11T00:02:10.595Z,-7.52
2024-01-11T00:03:10.593Z,-7.52
2024-01-11T00:04:10.581Z,-7.52
2024-01-11T00:05:10.627Z,-7.52
2024-01-11T00:06:10.763Z,-7.52
2024-01-11T00:07:10.678Z,-7.52
2024-01-11T00:08:10.614Z,-7.54
2024-01-11T00:09:10.575Z,-7.53
2024-01-11T00:10:10.596Z,-7.54
2024-01-11T00:11:10.639Z,-7.55
2024-01-11T00:12:10.588Z,-7.56
2024-01-11T00:13:10.598Z,-7.58
2024-01-11T00:14:10.725Z,-7.58
2024-01-11T00:15:10.587Z,-7.60
2024-01-11T00:16:10.648Z,-7.58
2024-01-11T00:17:10.629Z,-7.58
2024-01-11T00:18:10.742Z,-7.58
2024-01-11T00:19:10.670Z,-7.57
2024-01-11T00:20:10.768Z,-7.57
2024-01-11T00:21:10.590Z,-7.58
2024-01-11T00:22:10.610Z,-7.58
2024-01-11T00:23:10.618Z,-7.56
2024-01-11T00:24:10.599Z,-7.56
2024-01-11T00:25:10.600Z,-7.56
2024-01-11T00:26:10.606Z,-7.57
2024-01-11T00:27:10.581Z,-7.58
2024-01-11T00:28:10.637Z,-7.60
2024-01-11T00:29:10.672Z,-7.63
2024-01-11T00:30:10.619Z,-7.62
2024-01-11T00:31:10.596Z,-7.64
2024-01-11T00:32:10.620Z,-7.65
2024-01-11T00:33:10.715Z,-7.65
2024-01-11T00:34:10.735Z,-7.67
2024-01-11T00:35:10.689Z,-7.67
2024-01-11T00:36:10.614Z,-7.69
2024-01-11T00:37:10.599Z,-7.69
2024-01-11T00:38:10.637Z,-7.70
2024-01-11T00:39:10.603Z,-7.71
2024-01-11T00:40:10.605Z,-7.72
2024-01-11T00:41:10.640Z,-7.72
2024-01-11T00:42:10.607Z,-7.71
2024-01-11T00:43:10.625Z,-7.72
2024-01-11T00:44:10.642Z,-7.71
2024-01-11T00:45:10.645Z,-7.71
2024-01-11T00:46:10.597Z,-7.71
2024-01-11T00:47:10.687Z,-7.71
2024-01-11T00:48:10.740Z,-7.71
2024-01-11T00:49:10.729Z,-7.71
2024-01-11T00:50:10.669Z,-7.72
2024-01-11T00:51:10.582Z,-7.72
2024-01-11T00:52:10.612Z,-7.72
2024-01-11T00:53:10.661Z,-7.72
2024-01-11T00:54:10.636Z,-7.72
2024-01-11T00:55:10.617Z,-7.72
2024-01-11T00:56:10.624Z,-7.73
2024-01-11T00:57:10.607Z,-7.74
2024-01-11T00:58:10.604Z,-7.74
2024-01-11T00:59:10.666Z,-7.76
2024-01-11T01:00:10.637Z,-7.77
2024-01-11T01:01:10.663Z,-7.78
2024-01-11T01:02:10.643Z,-7.79
2024-01-11T01:03:10.599Z,-7.79
2024-01-11T01:04:10.733Z,-7.80
2024-01-11T01:05:10.660Z,-7.80
2024-01-11T01:06:10.648Z,-7.81
2024-01-11T01:07:10.601Z,-7.82
2024-01-11T01:08:10.634Z,-7.83
2024-01-11T01:09:10.651Z,-7.82
2024-01-11T01:10:10.722Z,-7.81
2024-01-11T01:11:10.740Z,-7.80
2024-01-11T01:12:10.672Z,-7.82
2024-01-11T01:13:10.627Z,-7.82
2024-01-11T01:14:10.640Z,-7.81
2024-01-11T01:15:10.667Z,-7.84
2024-01-11T01:16:10.643Z,-7.84
2024-01-11T01:17:11.584Z,-7.86
2024-01-11T01:18:10.746Z,-7.88
2024-01-11T01:19:10.694Z,-7.88
2024-01-11T01:20:10.678Z,-7.89
2024-01-11T01:21:10.649Z,-7.90
2024-01-11T01:22:10.653Z,-7.91
2024-01-11T01:23:10.653Z,-7.91
2024-01-11T01:24:10.675Z,-7.91
2024-01-11T01:25:10.713Z,-7.93
2024-01-11T01:26:10.719Z,-7.92
2024-01-11T01:27:10.645Z,-7.92
2024-01-11T01:28:10.641Z,-7.95
2024-01-11T01:29:10.657Z,-7.95
2024-01-11T01:30:10.776Z,-7.96
2024-01-11T01:31:10.701Z,-7.94
2024-01-11T01:32:10.648Z,-7.93
2024-01-11T01:33:10.815Z,-7.92
2024-01-11T01:34:10.777Z,-7.90
2024-01-11T01:35:10.744Z,-7.89
2024-01-11T01:36:10.690Z,-7.89
2024-01-11T01:37:10.694Z,-7.89
2024-01-11T01:38:10.702Z,-7.89
2024-01-11T01:39:10.615Z,-7.88
2024-01-11T01:40:10.634Z,-7.90
2024-01-11T01:41:10.682Z,-7.90
2024-01-11T01:42:10.648Z,-7.90
2024-01-11T01:43:10.657Z,-7.90
2024-01-11T01:44:10.668Z,-7.90
2024-01-11T01:45:10.661Z,-7.91
2024-01-11T01:46:10.701Z,-7.93
2024-01-11T01:47:10.717Z,-7.93
2024-01-11T01:48:10.766Z,-7.94
2024-01-11T01:49:10.730Z,-7.96
2024-01-11T01:50:10.696Z,-7.96
2024-01-11T01:51:10.642Z,-7.97
2024-01-11T01:52:10.687Z,-7.96
2024-01-11T01:53:10.710Z,-7.97
2024-01-11T01:54:10.693Z,-7.97
2024-01-11T01:55:10.719Z,-7.97
2024-01-11T01:56:10.756Z,-7.96
2024-01-11T01:57:11.028Z,-7.97
2024-01-11T01:58:10.766Z,-7.98
2024-01-11T01:59:10.845Z,-7.99
2024-01-11T02:00:10.759Z,-7.99
2024-01-11T02:01:12.143Z,-7.99
2024-01-11T02:02:10.837Z,-7.98
2024-01-11T02:03:10.916Z,-7.98
2024-01-11T02:04:10.804Z,-7.98
2024-01-11T02:05:10.907Z,-7.98
2024-01-11T02:06:10.874Z,-8.00
2024-01-11T02:07:10.792Z,-7.99
2024-01-11T02:08:10.865Z,-8.00
2024-01-11T02:09:10.854Z,-8.00
2024-01-11T02:10:10.797Z,-8.02
2024-01-11T02:11:10.854Z,-8.02
2024-01-11T02:13:11.156Z,-8.03
2024-01-11T02:14:10.859Z,-8.02
2024-01-11T02:15:10.832Z,-8.03
2024-01-11T02:16:10.863Z,-8.04
2024-01-11T02:17:10.875Z,-8.04
2024-01-11T02:18:10.888Z,-8.04
2024-01-11T02:19:10.876Z,-8.05
2024-01-11T02:20:10.934Z,-8.03
2024-01-11T02:21:10.886Z,-8.05
2024-01-11T02:22:10.843Z,-8.04
2024-01-11T02:23:10.856Z,-8.05
2024-01-11T02:24:10.890Z,-8.06
2024-01-11T02:25:10.852Z,-8.06
2024-01-11T02:26:10.865Z,-8.06
2024-01-11T02:27:10.840Z,-8.06
2024-01-11T02:28:10.833Z,-8.09
2024-01-11T02:29:10.879Z,-8.09
2024-01-11T02:30:10.885Z,-8.10
2024-01-11T02:31:10.909Z,-8.10
2024-01-11T02:32:10.932Z,-8.12
2024-01-11T02:33:10.982Z,-8.11
2024-01-11T02:34:10.885Z,-8.13
2024-01-11T02:35:10.905Z,-8.15
2024-01-11T02:36:10.876Z,-8.19
2024-01-11T02:37:10.879Z,-8.20
2024-01-11T02:38:10.908Z,-8.20
2024-01-11T02:39:10.858Z,-8.20
2024-01-11T02:40:13.315Z,-8.21
2024-01-11T02:41:10.867Z,-8.22
2024-01-11T02:42:10.915Z,-8.23
2024-01-11T02:43:10.895Z,-8.24
2024-01-11T02:44:10.894Z,-8.28
2024-01-11T02:45:10.870Z,-8.26
2024-01-11T02:46:10.859Z,-8.28
2024-01-11T02:47:10.893Z,-8.29
2024-01-11T02:48:11.056Z,-8.27
2024-01-11T02:49:10.924Z,-8.26
2024-01-11T02:50:10.960Z,-8.24
2024-01-11T02:51:10.860Z,-8.24
2024-01-11T02:52:10.866Z,-8.24
2024-01-11T02:53:10.907Z,-8.24
2024-01-11T02:54:10.874Z,-8.24
2024-01-11T02:55:10.848Z,-8.24
2024-01-11T02:56:10.882Z,-8.25
2024-01-11T02:57:10.860Z,-8.27
2024-01-11T02:58:10.903Z,-8.29
2024-01-11T02:59:10.885Z,-8.30
2024-01-11T03:00:10.917Z,-8.31
2024-01-11T03:01:10.918Z,-8.31
2024-01-11T03:02:10.904Z,-8.32
2024-01-11T03:03:10.953Z,-8.34
2024-01-11T03:04:10.970Z,-8.35
2024-01-11T03:05:10.962Z,-8.36
2024-01-11T03:06:10.988Z,-8.37
2024-01-11T03:07:10.955Z,-8.38
2024-01-11T03:08:11.043Z,-8.37
2024-01-11T03:09:10.973Z,-8.38
2024-01-11T03:10:10.972Z,-8.37
2024-01-11T03:11:11.009Z,-8.37
2024-01-11T03:12:10.985Z,-8.35
2024-01-11T03:13:11.037Z,-8.34
2024-01-11T03:14:11.079Z,-8.34
2024-01-11T03:15:11.042Z,-8.32
2024-01-11T03:16:11.035Z,-8.32
2024-01-11T03:17:11.117Z,-8.31
2024-01-11T03:18:11.524Z,-8.32
2024-01-11T03:19:11.134Z,-8.32
2024-01-11T03:20:11.122Z,-8.32
2024-01-11T03:21:11.150Z,-8.32
2024-01-11T03:22:11.098Z,-8.33
2024-01-11T03:23:11.122Z,-8.34
2024-01-11T03:24:11.112Z,-8.33
2024-01-11T03:25:11.146Z,-8.35
2024-01-11T03:26:11.171Z,-8.38
2024-01-11T03:27:11.150Z,-8.41
2024-01-11T03:28:11.212Z,-8.43
2024-01-11T03:29:11.204Z,-8.43
2024-01-11T03:30:11.302Z,-8.44
2024-01-11T03:31:11.223Z,-8.44
2024-01-11T03:32:11.238Z,-8.44
2024-01-11T03:33:11.455Z,-8.45
2024-01-11T03:34:11.357Z,-8.45
2024-01-11T03:35:11.334Z,-8.46
2024-01-11T03:36:11.279Z,-8.47
2024-01-11T03:37:11.279Z,-8.46
2024-01-11T03:38:11.393Z,-8.47
2024-01-11T03:39:11.300Z,-8.48
2024-01-11T03:40:11.323Z,-8.48
2024-01-11T03:41:11.505Z,-8.49
2024-01-11T03:42:11.331Z,-8.47
2024-01-11T03:43:11.393Z,-8.48
2024-01-11T03:44:11.381Z,-8.48
2024-01-11T03:45:11.407Z,-8.47
2024-01-11T03:46:11.381Z,-8.47
2024-01-11T03:47:11.415Z,-8.45
2024-01-11T03:48:11.497Z,-8.46
2024-01-11T03:49:11.492Z,-8.45
2024-01-11T03:50:11.511Z,-8.46
2024-01-11T03:51:11.463Z,-8.45
2024-01-11T03:52:11.459Z,-8.47
2024-01-11T03:53:11.557Z,-8.48
2024-01-11T03:54:11.484Z,-8.49
2024-01-11T03:55:11.472Z,-8.50
2024-01-11T03:56:11.545Z,-8.52
2024-01-11T03:57:11.466Z,-8.53
2024-01-11T03:58:11.483Z,-8.52
2024-01-11T03:59:11.489Z,-8.53
2024-01-11T04:00:11.860Z,-8.53
2024-01-11T04:01:11.757Z,-8.53
2024-01-11T04:02:11.503Z,-8.54
2024-01-11T04:03:11.585Z,-8.53
2024-01-11T04:04:11.584Z,-8.52
2024-01-11T04:05:11.724Z,-8.53
2024-01-11T04:06:11.587Z,-8.52
2024-01-11T04:07:11.471Z,-8.54
2024-01-11T04:08:11.567Z,-8.51
2024-01-11T04:09:11.525Z,-8.52
2024-01-11T04:10:11.494Z,-8.50
2024-01-11T04:11:11.550Z,-8.50
2024-01-11T04:12:11.510Z,-8.49
2024-01-11T04:13:11.543Z,-8.49
2024-01-11T04:14:11.507Z,-8.48
2024-01-11T04:15:11.529Z,-8.49
2024-01-11T04:16:11.471Z,-8.50
2024-01-11T04:17:11.479Z,-8.49
2024-01-11T04:18:11.619Z,-8.50
2024-01-11T04:19:11.587Z,-8.49
2024-01-11T04:20:11.565Z,-8.49
2024-01-11T04:21:11.505Z,-8.49
2024-01-11T04:22:11.512Z,-8.49
2024-01-11T04:23:11.553Z,-8.50
2024-01-11T04:24:11.481Z,-8.50
2024-01-11T04:25:11.470Z,-8.50
2024-01-11T04:26:11.528Z,-8.51
2024-01-11T04:27:11.462Z,-8.51
2024-01-11T04:28:11.489Z,-8.50
2024-01-11T04:29:11.514Z,-8.51
2024-01-11T04:30:11.499Z,-8.51
2024-01-11T04:31:11.519Z,-8.52
2024-01-11T04:32:11.589Z,-8.54
2024-01-11T04:33:11.650Z,-8.55
2024-01-11T04:34:11.537Z,-8.56
2024-01-11T04:35:11.667Z,-8.56
2024-01-11T04:36:11.501Z,-8.56
2024-01-11T04:37:11.497Z,-8.56
2024-01-11T04:38:11.507Z,-8.56
2024-01-11T04:39:11.505Z,-8.58
2024-01-11T04:40:11.525Z,-8.60
2024-01-11T04:41:11.580Z,-8.61
2024-01-11T04:42:11.475Z,-8.62
2024-01-11T04:43:11.523Z,-8.64
2024-01-11T04:44:11.492Z,-8.66
2024-01-11T04:45:11.474Z,-8.68
2024-01-11T04:46:11.505Z,-8.70
2024-01-11T04:47:11.530Z,-8.71
2024-01-11T04:48:11.665Z,-8.71
2024-01-11T04:49:11.558Z,-8.71
2024-01-11T04:50:11.662Z,-8.72
2024-01-11T04:51:11.534Z,-8.73
2024-01-11T04:52:11.500Z,-8.73
2024-01-11T04:53:11.501Z,-8.72
2024-01-11T04:54:11.513Z,-8.73
2024-01-11T04:55:11.500Z,-8.73
2024-01-11T04:56:11.604Z,-8.72
2024-01-11T04:57:11.501Z,-8.73
2024-01-11T04:58:11.483Z,-8.73
2024-01-11T04:59:11.546Z,-8.75
2024-01-11T05:00:11.589Z,-8.77
2024-01-11T05:01:11.581Z,-8.77
2024-01-11T05:02:11.543Z,-8.78
2024-01-11T05:03:11.521Z,-8.78
2024-01-11T05:04:11.567Z,-8.79
2024-01-11T05:05:11.537Z,-8.81
2024-01-11T05:06:11.548Z,-8.82
2024-01-11T05:07:11.521Z,-8.84
2024-01-11T05:08:11.534Z,-8.85
2024-01-11T05:09:11.564Z,-8.85
2024-01-11T05:10:11.496Z,-8.86
2024-01-11T05:11:11.567Z,-8.86
2024-01-11T05:12:11.494Z,-8.86
2024-01-11T05:13:11.747Z,-8.87
2024-01-11T05:14:11.599Z,-8.87
2024-01-11T05:15:11.528Z,-8.87
2024-01-11T05:16:11.511Z,-8.88
2024-01-11T05:17:11.580Z,-8.89
2024-01-11T05:18:11.604Z,-8.91
2024-01-11T05:19:11.690Z,-8.91
2024-01-11T05:20:11.591Z,-8.90
2024-01-11T05:21:11.529Z,-8.90
2024-01-11T05:22:11.583Z,-8.89
2024-01-11T05:23:11.544Z,-8.90
2024-01-11T05:24:12.360Z,-8.90
2024-01-11T05:25:11.553Z,-8.90
2024-01-11T05:26:11.601Z,-8.91
2024-01-11T05:27:11.571Z,-8.91
2024-01-11T05:28:11.572Z,-8.91
2024-01-11T05:29:11.588Z,-8.91
2024-01-11T05:30:11.636Z,-8.92
2024-01-11T05:31:11.707Z,-8.93
2024-01-11T05:32:11.795Z,-8.93
2024-01-11T05:33:11.713Z,-8.95
2024-01-11T05:34:11.715Z,-8.95
2024-01-11T05:35:11.647Z,-8.96
2024-01-11T05:36:11.583Z,-8.96
2024-01-11T05:37:11.577Z,-8.98
2024-01-11T05:38:11.560Z,-8.98
2024-01-11T05:39:11.526Z,-8.97
2024-01-11T05:40:11.618Z,-8.98
2024-01-11T05:41:11.636Z,-8.97
2024-01-11T05:42:11.543Z,-8.97
2024-01-11T05:43:11.535Z,-8.98
2024-01-11T05:44:11.628Z,-8.99
2024-01-11T05:45:11.519Z,-8.98
2024-01-11T05:46:11.704Z,-9.00
2024-01-11T05:47:11.531Z,-9.01
2024-01-11T05:48:11.588Z,-9.02
2024-01-11T05:49:11.581Z,-9.02
2024-01-11T05:50:11.556Z,-9.02
2024-01-11T05:51:11.556Z,-9.04
2024-01-11T05:52:11.588Z,-9.04
2024-01-11T05:53:11.577Z,-9.02
2024-01-11T05:54:11.618Z,-9.01
2024-01-11T05:55:11.569Z,-8.98
2024-01-11T05:56:12.064Z,-8.98
2024-01-11T05:57:11.566Z,-9.00
2024-01-11T05:58:11.596Z,-9.01
2024-01-11T05:59:11.602Z,-9.02
2024-01-11T06:00:11.572Z,-9.03
2024-01-11T06:01:11.755Z,-9.04
2024-01-11T06:02:11.625Z,-9.04
2024-01-11T06:03:11.603Z,-9.05
2024-01-11T06:04:11.573Z,-9.05
2024-01-11T06:05:11.667Z,-9.05
2024-01-11T06:06:11.688Z,-9.06
2024-01-11T06:07:11.606Z,-9.08
2024-01-11T06:08:11.594Z,-9.08
2024-01-11T06:09:11.621Z,-9.08
2024-01-11T06:10:11.592Z,-9.10
2024-01-11T06:11:11.662Z,-9.09
2024-01-11T06:12:11.583Z,-9.08
2024-01-11T06:13:11.624Z,-9.09
2024-01-11T06:14:11.646Z,-9.10
2024-01-11T06:15:11.592Z,-9.11
2024-01-11T06:16:13.302Z,-9.08
2024-01-11T06:17:11.612Z,-9.09
2024-01-11T06:18:11.742Z,-9.09
2024-01-11T06:19:11.650Z,-9.10
2024-01-11T06:20:11.740Z,-9.10
2024-01-11T06:21:11.604Z,-9.10
2024-01-11T06:22:11.616Z,-9.10
2024-01-11T06:23:11.643Z,-9.11
2024-01-11T06:24:12.227Z,-9.12
2024-01-11T06:25:11.561Z,-9.14
2024-01-11T06:26:11.635Z,-9.17
2024-01-11T06:27:11.577Z,-9.19
2024-01-11T06:28:11.607Z,-9.19
2024-01-11T06:29:11.597Z,-9.19
2024-01-11T06:30:11.607Z,-9.21
2024-01-11T06:31:11.644Z,-9.21
2024-01-11T06:32:11.682Z,-9.20
2024-01-11T06:33:11.699Z,-9.21
2024-01-11T06:34:11.627Z,-9.20
2024-01-11T06:35:11.750Z,-9.20
2024-01-11T06:36:11.550Z,-9.20
2024-01-11T06:37:11.610Z,-9.18
2024-01-11T06:38:11.602Z,-9.20
2024-01-11T06:39:11.570Z,-9.19
2024-01-11T06:40:11.661Z,-9.18
2024-01-11T06:41:11.620Z,-9.19
2024-01-11T06:42:11.640Z,-9.20
2024-01-11T06:43:11.626Z,-9.20
2024-01-11T06:44:11.662Z,-9.20
2024-01-11T06:45:11.670Z,-9.21
2024-01-11T06:46:11.647Z,-9.23
2024-01-11T06:47:11.679Z,-9.24
2024-01-11T06:48:11.747Z,-9.25
2024-01-11T06:49:11.786Z,-9.26
2024-01-11T06:50:11.646Z,-9.26
2024-01-11T06:51:11.637Z,-9.29
2024-01-11T06:52:11.580Z,-9.30
2024-01-11T06:53:11.666Z,-9.33
2024-01-11T06:54:11.567Z,-9.35
2024-01-11T06:55:11.613Z,-9.35
2024-01-11T06:56:11.647Z,-9.37
2024-01-11T06:57:11.562Z,-9.38
2024-01-11T06:58:11.623Z,-9.38
2024-01-11T06:59:11.683Z,-9.39
2024-01-11T07:00:11.742Z,-9.39
2024-01-11T07:01:11.721Z,-9.39
2024-01-11T07:02:11.709Z,-9.39
2024-01-11T07:03:11.704Z,-9.39
2024-01-11T07:04:11.773Z,-9.39
2024-01-11T07:05:11.955Z,-9.40
2024-01-11T07:06:11.894Z,-9.40
2024-01-11T07:07:11.716Z,-9.40
2024-01-11T07:08:11.842Z,-9.40
2024-01-11T07:09:11.757Z,-9.39
2024-01-11T07:10:11.739Z,-9.39
2024-01-11T07:11:11.782Z,-9.39
2024-01-11T07:12:11.777Z,-9.39
2024-01-11T07:13:11.793Z,-9.39
2024-01-11T07:14:11.863Z,-9.39
2024-01-11T07:15:11.844Z,-9.40
2024-01-11T07:16:14.465Z,-9.41
2024-01-11T07:17:11.882Z,-9.41
2024-01-11T07:18:11.943Z,-9.39
2024-01-11T07:19:11.911Z,-9.36
2024-01-11T07:20:11.892Z,-9.35
2024-01-11T07:21:11.851Z,-9.34
2024-01-11T07:22:11.862Z,-9.34
2024-01-11T07:23:11.820Z,-9.33
2024-01-11T07:24:11.820Z,-9.34
2024-01-11T07:25:11.821Z,-9.35
2024-01-11T07:26:11.842Z,-9.34
2024-01-11T07:27:11.864Z,-9.34
2024-01-11T07:28:11.862Z,-9.33
2024-01-11T07:29:11.841Z,-9.32
2024-01-11T07:30:11.804Z,-9.33
2024-01-11T07:31:12.569Z,-9.33
2024-01-11T07:32:11.899Z,-9.33
2024-01-11T07:33:12.028Z,-9.33
2024-01-11T07:34:11.965Z,-9.33
2024-01-11T07:35:15.175Z,-9.33
2024-01-11T07:36:11.880Z,-9.32
2024-01-11T07:37:11.851Z,-9.31
2024-01-11T07:38:11.915Z,-9.29
2024-01-11T07:39:11.840Z,-9.29
2024-01-11T07:40:12.068Z,-9.30
2024-01-11T07:41:11.956Z,-9.33
2024-01-11T07:42:11.838Z,-9.33
2024-01-11T07:43:11.898Z,-9.33
2024-01-11T07:44:11.861Z,-9.35
2024-01-11T07:45:11.849Z,-9.35
2024-01-11T07:46:11.883Z,-9.34
2024-01-11T07:47:11.892Z,-9.35
2024-01-11T07:48:12.043Z,-9.34
2024-01-11T07:49:11.949Z,-9.33
2024-01-11T07:50:12.057Z,-9.32
2024-01-11T07:51:11.885Z,-9.32
2024-01-11T07:52:11.863Z,-9.30
2024-01-11T07:53:11.931Z,-9.29
2024-01-11T07:54:11.883Z,-9.29
2024-01-11T07:55:11.854Z,-9.28
2024-01-11T07:56:11.915Z,-9.25
2024-01-11T07:57:11.847Z,-9.23
2024-01-11T07:58:12.173Z,-9.20
2024-01-11T07:59:11.925Z,-9.16
2024-01-11T08:00:12.058Z,-9.15
2024-01-11T08:01:11.965Z,-9.12
2024-01-11T08:02:11.846Z,-9.11
2024-01-11T08:03:12.443Z,-9.10
2024-01-11T08:04:11.933Z,-9.09
2024-01-11T08:05:11.957Z,-9.09
2024-01-11T08:06:11.985Z,-9.09
2024-01-11T08:07:11.837Z,-9.07
2024-01-11T08:08:11.895Z,-9.04
2024-01-11T08:09:12.051Z,-9.04
2024-01-11T08:10:11.869Z,-9.03
2024-01-11T08:11:11.955Z,-9.01
2024-01-11T08:12:12.017Z,-9.00
2024-01-11T08:13:12.021Z,-9.01
2024-01-11T08:14:11.939Z,-9.00
2024-01-11T08:15:11.873Z,-8.98
2024-01-11T08:16:11.909Z,-8.96
2024-01-11T08:17:11.957Z,-8.94
2024-01-11T08:18:12.064Z,-8.90
2024-01-11T08:19:12.038Z,-8.87
2024-01-11T08:20:12.049Z,-8.82
2024-01-11T08:21:11.863Z,-8.79
2024-01-11T08:22:11.911Z,-8.77
2024-01-11T08:23:12.007Z,-8.75
2024-01-11T08:24:11.899Z,-8.74
2024-01-11T08:25:11.847Z,-8.73
2024-01-11T08:26:11.934Z,-8.70
2024-01-11T08:27:11.887Z,-8.67
2024-01-11T08:28:12.075Z,-8.66
2024-01-11T08:29:11.889Z,-8.64
2024-01-11T08:30:11.873Z,-8.62
2024-01-11T08:31:11.917Z,-8.59
2024-01-11T08:32:19.908Z,-8.56
2024-01-11T08:33:12.321Z,-8.54
2024-01-11T08:34:12.028Z,-8.52
2024-01-11T08:35:12.059Z,-8.49
2024-01-11T08:36:12.055Z,-8.45
2024-01-11T08:37:11.942Z,-8.42
2024-01-11T08:38:12.274Z,-8.37
2024-01-11T08:39:11.868Z,-8.34
2024-01-11T08:40:12.438Z,-8.31
2024-01-11T08:41:11.926Z,-8.29
2024-01-11T08:42:11.884Z,-8.27
2024-01-11T08:43:11.894Z,-8.25
2024-01-11T08:44:11.935Z,-8.23
2024-01-11T08:45:11.956Z,-8.20
2024-01-11T08:46:11.877Z,-8.17
2024-01-11T08:47:11.928Z,-8.14
2024-01-11T08:48:12.119Z,-8.09
2024-01-11T08:49:11.943Z,-8.03
2024-01-11T08:50:11.937Z,-7.95
2024-01-11T08:51:11.866Z,-7.89
2024-01-11T08:52:11.872Z,-7.81
2024-01-11T08:53:11.930Z,-7.73
2024-01-11T08:54:11.923Z,-7.69
2024-01-11T08:55:11.889Z,-7.65
2024-01-11T08:56:11.974Z,-7.64
2024-01-11T08:57:11.921Z,-7.69
2024-01-11T08:58:11.918Z,-7.73
2024-01-11T08:59:11.900Z,-7.74
2024-01-11T09:00:11.900Z,-7.73
2024-01-11T09:01:11.982Z,-7.73
2024-01-11T09:03:11.954Z,-7.66
2024-01-11T09:04:11.921Z,-7.63
2024-01-11T09:05:11.928Z,-7.59
2024-01-11T09:06:12.008Z,-7.55
2024-01-11T09:07:11.941Z,-7.50
2024-01-11T09:08:11.997Z,-7.47
2024-01-11T09:09:11.990Z,-7.43
2024-01-11T09:10:11.877Z,-7.41
2024-01-11T09:11:11.971Z,-7.36
2024-01-11T09:12:11.925Z,-7.29
2024-01-11T09:13:13.986Z,-7.26
2024-01-11T09:14:11.912Z,-7.20
2024-01-11T09:15:11.953Z,-7.13
2024-01-11T09:16:11.922Z,-7.07
2024-01-11T09:17:11.957Z,-7.03
2024-01-11T09:18:12.208Z,-6.98
2024-01-11T09:19:11.958Z,-6.92
2024-01-11T09:20:11.940Z,-6.86
2024-01-11T09:21:11.967Z,-6.81
2024-01-11T09:22:12.072Z,-6.74
2024-01-11T09:23:11.948Z,-6.69
2024-01-11T09:24:11.916Z,-6.64
2024-01-11T09:25:11.919Z,-6.59
2024-01-11T09:26:11.965Z,-6.57
2024-01-11T09:27:11.908Z,-6.55
2024-01-11T09:28:11.892Z,-6.55
2024-01-11T09:29:12.016Z,-6.54
2024-01-11T09:30:11.987Z,-6.52
2024-01-11T09:31:11.960Z,-6.51
2024-01-11T09:32:11.935Z,-6.49
2024-01-11T09:33:11.996Z,-6.46
2024-01-11T09:34:11.995Z,-6.44
2024-01-11T09:35:14.808Z,-6.38
2024-01-11T09:36:11.978Z,-6.35
2024-01-11T09:37:11.933Z,-6.32
2024-01-11T09:38:11.953Z,-6.30
2024-01-11T09:39:12.023Z,-6.29
2024-01-11T09:40:12.076Z,-6.27
2024-01-11T09:41:13.396Z,-6.23
2024-01-11T09:42:12.405Z,-6.20
2024-01-11T09:43:11.922Z,-6.16
2024-01-11T09:44:11.955Z,-6.12
2024-01-11T09:45:11.907Z,-6.08
2024-01-11T09:46:11.952Z,-6.05
2024-01-11T09:47:14.329Z,-5.99
2024-01-11T09:48:12.136Z,-5.96
2024-01-11T09:49:12.098Z,-5.93
2024-01-11T09:50:11.926Z,-5.89
2024-01-11T09:51:11.937Z,-5.88
2024-01-11T09:52:12.095Z,-5.84
2024-01-11T09:53:11.925Z,-5.82
2024-01-11T09:54:11.926Z,-5.79
2024-01-11T09:55:11.957Z,-5.75
2024-01-11T09:56:12.020Z,-5.71
2024-01-11T09:57:11.930Z,-5.68
2024-01-11T09:58:11.921Z,-5.64
2024-01-11T09:59:13.267Z,-5.61
2024-01-11T10:00:12.069Z,-5.58
2024-01-11T10:01:12.096Z,-5.55
2024-01-11T10:02:12.207Z,-5.53
2024-01-11T10:03:12.060Z,-5.49
2024-01-11T10:04:12.109Z,-5.48
2024-01-11T10:05:13.148Z,-5.46
2024-01-11T10:06:12.349Z,-5.43
2024-01-11T10:07:12.200Z,-5.39
2024-01-11T10:08:12.197Z,-5.35
2024-01-11T10:09:12.171Z,-5.28
2024-01-11T10:10:12.174Z,-5.23
2024-01-11T10:11:12.484Z,-5.18
2024-01-11T10:12:12.179Z,-5.15
2024-01-11T10:13:12.198Z,-5.11
2024-01-11T10:14:12.236Z,-5.07
2024-01-11T10:15:12.289Z,-5.04
2024-01-11T10:16:12.282Z,-4.96
2024-01-11T10:17:19.111Z,-4.92
2024-01-11T10:18:12.403Z,-4.90
2024-01-11T10:19:12.416Z,-4.85
2024-01-11T10:20:12.482Z,-4.81
2024-01-11T10:21:12.261Z,-4.77
2024-01-11T10:22:12.231Z,-4.75
2024-01-11T10:23:12.351Z,-4.72
2024-01-11T10:24:12.266Z,-4.70
2024-01-11T10:25:12.556Z,-4.69
2024-01-11T10:26:12.376Z,-4.69
2024-01-11T10:27:12.296Z,-4.64
2024-01-11T10:28:12.259Z,-4.61
2024-01-11T10:29:13.139Z,-4.56
2024-01-11T10:30:12.257Z,-4.55
2024-01-11T10:31:12.345Z,-4.56
2024-01-11T10:32:12.282Z,-4.56
2024-01-11T10:33:12.433Z,-4.54
2024-01-11T10:34:12.384Z,-4.55
2024-01-11T10:35:12.269Z,-4.50
2024-01-11T10:36:12.352Z,-4.46
2024-01-11T10:37:12.267Z,-4.42
2024-01-11T10:38:12.329Z,-4.38
2024-01-11T10:39:12.305Z,-4.33
2024-01-11T10:40:12.275Z,-4.27
2024-01-11T10:41:12.312Z,-4.25
2024-01-11T10:42:12.288Z,-4.21
2024-01-11T10:43:12.249Z,-4.19
2024-01-11T10:44:12.300Z,-4.17
2024-01-11T10:45:12.330Z,-4.15
2024-01-11T10:46:12.317Z,-4.14
2024-01-11T10:47:12.328Z,-4.14
2024-01-11T10:48:12.404Z,-4.12
2024-01-11T10:49:12.307Z,-4.10
2024-01-11T10:50:12.378Z,-4.07
2024-01-11T10:51:12.369Z,-4.07
2024-01-11T10:52:12.271Z,-4.05
2024-01-11T10:53:12.339Z,-4.03
2024-01-11T10:54:12.268Z,-4.01
2024-01-11T10:55:12.274Z,-3.99
2024-01-11T10:56:12.394Z,-3.98
2024-01-11T10:57:12.285Z,-3.94
2024-01-11T10:58:12.280Z,-3.92
2024-01-11T10:59:12.385Z,-3.88
2024-01-11T11:00:12.285Z,-3.82
2024-01-11T11:01:12.368Z,-3.78
2024-01-11T11:02:12.287Z,-3.75
2024-01-11T11:03:12.331Z,-3.70
2024-01-11T11:04:12.278Z,-3.65
2024-01-11T11:05:12.366Z,-3.59
2024-01-11T11:06:12.489Z,-3.55
2024-01-11T11:07:12.279Z,-3.51
2024-01-11T11:08:12.292Z,-3.47
2024-01-11T11:09:12.291Z,-3.47
2024-01-11T11:10:12.306Z,-3.46
2024-01-11T11:11:12.683Z,-3.43
2024-01-11T11:12:12.269Z,-3.40
2024-01-11T11:13:12.301Z,-3.40
2024-01-11T11:14:12.314Z,-3.41
2024-01-11T11:15:12.302Z,-3.42
2024-01-11T11:16:12.318Z,-3.39
2024-01-11T11:17:12.345Z,-3.31
2024-01-11T11:18:12.345Z,-3.27
2024-01-11T11:19:12.329Z,-3.22
2024-01-11T11:20:12.311Z,-3.18
2024-01-11T11:21:12.345Z,-3.14
2024-01-11T11:22:12.431Z,-3.12
2024-01-11T11:23:12.402Z,-3.09
2024-01-11T11:24:12.323Z,-3.07
2024-01-11T11:25:12.280Z,-3.03
2024-01-11T11:26:12.313Z,-3.00
2024-01-11T11:27:12.329Z,-2.98
2024-01-11T11:28:12.335Z,-2.95
2024-01-11T11:29:12.295Z,-2.96
2024-01-11T11:30:12.305Z,-2.93
2024-01-11T11:31:12.316Z,-2.92
2024-01-11T11:32:12.294Z,-2.91
2024-01-11T11:33:12.669Z,-2.89
2024-01-11T11:34:12.351Z,-2.86
2024-01-11T11:35:12.325Z,-2.84
2024-01-11T11:36:12.318Z,-2.80
2024-01-11T11:37:12.294Z,-2.76
2024-01-11T11:38:12.352Z,-2.76
2024-01-11T11:39:12.310Z,-2.72
2024-01-11T11:40:12.303Z,-2.71
2024-01-11T11:41:12.374Z,-2.70
2024-01-11T11:42:12.315Z,-2.69
2024-01-11T11:43:12.364Z,-2.65
2024-01-11T11:44:12.358Z,-2.63
2024-01-11T11:45:12.332Z,-2.62
2024-01-11T11:46:12.302Z,-2.58
2024-01-11T11:47:12.354Z,-2.56
2024-01-11T11:48:12.453Z,-2.52
2024-01-11T11:49:12.337Z,-2.49
2024-01-11T11:50:12.388Z,-2.43
2024-01-11T11:51:12.305Z,-2.40
2024-01-11T11:52:12.337Z,-2.39
2024-01-11T11:53:12.359Z,-2.35
2024-01-11T11:54:12.344Z,-2.31
2024-01-11T11:55:12.401Z,-2.33
2024-01-11T11:56:12.351Z,-2.32
2024-01-11T11:57:12.321Z,-2.32
2024-01-11T11:58:12.347Z,-2.31
2024-01-11T11:59:12.451Z,-2.26
2024-01-11T12:00:12.325Z,-2.21
2024-01-11T12:01:12.407Z,-2.18
2024-01-11T12:02:12.363Z,-2.13
2024-01-11T12:03:12.317Z,-2.09
2024-01-11T12:04:12.349Z,-2.05
2024-01-11T12:05:12.481Z,-2.01
2024-01-11T12:06:12.379Z,-1.98
2024-01-11T12:07:12.374Z,-1.96
2024-01-11T12:08:12.341Z,-1.89
2024-01-11T12:09:12.352Z,-1.84
2024-01-11T12:10:12.340Z,-1.81
2024-01-11T12:11:12.414Z,-1.76
2024-01-11T12:12:15.889Z,-1.71
2024-01-11T12:13:12.344Z,-1.69
2024-01-11T12:14:12.409Z,-1.65
2024-01-11T12:15:12.363Z,-1.62
2024-01-11T12:16:12.397Z,-1.58
2024-01-11T12:17:12.360Z,-1.60
2024-01-11T12:18:12.435Z,-1.58
2024-01-11T12:19:12.382Z,-1.57
2024-01-11T12:20:12.379Z,-1.57
2024-01-11T12:21:12.368Z,-1.54
2024-01-11T12:22:12.368Z,-1.50
2024-01-11T12:23:12.442Z,-1.47
2024-01-11T12:24:12.324Z,-1.46
2024-01-11T12:25:12.330Z,-1.45
2024-01-11T12:26:12.409Z,-1.44
2024-01-11T12:27:12.384Z,-1.41
2024-01-11T12:28:12.370Z,-1.38
2024-01-11T12:29:12.455Z,-1.38
2024-01-11T12:30:12.538Z,-1.37
2024-01-11T12:31:12.420Z,-1.36
2024-01-11T12:32:12.402Z,-1.34
2024-01-11T12:33:12.655Z,-1.30
2024-01-11T12:34:12.385Z,-1.30
2024-01-11T12:35:12.375Z,-1.27
2024-01-11T12:36:12.361Z,-1.25
2024-01-11T12:37:12.370Z,-1.24
2024-01-11T12:38:12.429Z,-1.22
2024-01-11T12:39:12.372Z,-1.22
2024-01-11T12:40:12.343Z,-1.18
2024-01-11T12:41:12.398Z,-1.16
2024-01-11T12:42:12.341Z,-1.13
2024-01-11T12:43:12.412Z,-1.09
2024-01-11T12:44:12.418Z,-1.06
2024-01-11T12:45:12.349Z,-1.02
2024-01-11T12:46:12.420Z,-1.00
2024-01-11T12:47:12.465Z,-0.97
2024-01-11T12:48:12.487Z,-0.95
2024-01-11T12:49:12.419Z,-0.95
2024-01-11T12:50:12.414Z,-0.93
2024-01-11T12:51:17.570Z,-0.88
2024-01-11T12:52:12.398Z,-0.82
2024-01-11T12:53:12.448Z,-0.78
2024-01-11T12:54:12.409Z,-0.73